Time;durP1;ratioP1;P1;durP2;ratioP2;P2;SDS_P1;SDS_P2;PMS_P1;PMS_P2;Temp;Humidity;BMP_temperature;BMP_pressure;BME280_temperature;BME280_humidity;BME280_pressure;Samples;Min_cycle;Max_cycle;Signal;HPM_P1;HPM_P2
2022/05/30 00:01:35;;;;;;;;;1.33;1.33;;;;;12.59;100.00;100833.59;5031648;28;45706;-71
2022/05/30 00:04:01;;;;;;;;;1.33;1.33;;;;;12.62;100.00;100839.53;5044497;28;45816;-70
2022/05/30 00:06:29;;;;;;;;;1.00;1.00;;;;;12.62;100.00;100849.66;5002790;28;46053;-72
2022/05/30 00:08:55;;;;;;;;;3.00;3.00;;;;;12.56;100.00;100847.81;5041249;28;45305;-71
2022/05/30 00:11:21;;;;;;;;;1.00;1.00;;;;;12.52;100.00;100841.91;5032754;28;45474;-71
2022/05/30 00:13:46;;;;;;;;;2.67;2.00;;;;;12.52;100.00;100840.00;5025130;28;45604;-71
2022/05/30 00:16:16;;;;;;;;;2.00;2.00;;;;;12.50;100.00;100836.63;5017058;28;45740;-71
2022/05/30 00:18:42;;;;;;;;;2.00;2.00;;;;;12.48;100.00;100835.97;5019840;28;45466;-70
2022/05/30 00:21:07;;;;;;;;;1.33;1.33;;;;;12.44;100.00;100826.50;5023265;28;45608;-71
2022/05/30 00:23:33;;;;;;;;;1.00;1.00;;;;;12.44;100.00;100822.91;5026723;28;45304;-71
2022/05/30 00:25:58;;;;;;;;;3.00;2.00;;;;;12.44;100.00;100828.38;5005777;28;45495;-70
2022/05/30 00:28:24;;;;;;;;;3.00;1.67;;;;;12.44;100.00;100828.38;5046168;28;45527;-71
2022/05/30 00:30:50;;;;;;;;;2.00;2.00;;;;;12.40;100.00;100819.75;5014821;28;45372;-70
2022/05/30 00:33:17;;;;;;;;;1.00;1.00;;;;;12.39;100.00;100818.06;5032892;28;45440;-71
2022/05/30 00:35:43;;;;;;;;;2.00;2.00;;;;;12.36;100.00;100815.75;5032235;28;45634;-72
2022/05/30 00:38:09;;;;;;;;;1.33;1.33;;;;;12.38;100.00;100815.53;5043974;28;45729;-71
2022/05/30 00:40:36;;;;;;;;;3.00;3.00;;;;;12.35;100.00;100823.16;5026477;28;45766;-71
2022/05/30 00:43:17;;;;;;;;;1.00;1.00;;;;;12.34;100.00;100809.63;5035012;28;45406;-70
2022/05/30 00:45:43;;;;;;;;;2.67;2.00;;;;;12.32;100.00;100806.22;5032682;28;46010;-70
2022/05/30 00:48:08;;;;;;;;;3.00;2.00;;;;;12.32;100.00;100809.84;5032118;28;46327;-71
2022/05/30 00:50:36;;;;;;;;;2.33;2.00;;;;;12.30;100.00;100803.69;4997516;28;45660;-72
2022/05/30 00:53:01;;;;;;;;;2.00;2.00;;;;;12.27;100.00;100804.16;5032042;28;45251;-71
2022/05/30 00:55:27;;;;;;;;;5.00;3.67;;;;;12.25;100.00;100806.28;5031651;28;45982;-71
2022/05/30 00:57:53;;;;;;;;;3.00;2.00;;;;;12.26;100.00;100801.63;5031589;28;45606;-71
2022/05/30 01:00:26;;;;;;;;;2.00;2.00;;;;;12.23;100.00;100808.41;5013755;28;45615;-71
2022/05/30 01:08:25;;;;;;;;;3.67;3.00;;;;;12.18;100.00;100783.47;5027299;28;45805;-72
2022/05/30 01:10:50;;;;;;;;;1.67;1.67;;;;;12.21;100.00;100799.53;5038371;28;45417;-70
2022/05/30 01:13:16;;;;;;;;;3.67;3.67;;;;;12.21;100.00;100793.19;5034132;28;45694;-70
2022/05/30 01:15:41;;;;;;;;;2.00;2.00;;;;;12.19;100.00;100791.50;5035218;28;45558;-72
2022/05/30 01:18:11;;;;;;;;;3.00;3.00;;;;;12.18;100.00;100798.06;5020686;28;45418;-71
2022/05/30 01:20:39;;;;;;;;;2.33;2.33;;;;;12.17;100.00;100798.25;5035463;28;45698;-71
2022/05/30 01:23:29;;;;;;;;;2.00;2.00;;;;;12.14;100.00;100791.31;5035478;28;45676;-71
2022/05/30 01:26:16;;;;;;;;;2.67;2.67;;;;;12.14;100.00;100795.94;5034671;28;45763;-71
2022/05/30 01:31:31;;;;;;;;;2.00;2.00;;;;;11.96;100.00;100769.16;5050978;28;45185;-83
2022/05/30 01:33:56;;;;;;;;;3.00;3.00;;;;;11.96;100.00;100771.91;5011833;28;45398;-83
2022/05/30 01:36:28;;;;;;;;;2.00;2.00;;;;;11.98;100.00;100775.31;5040949;28;45988;-83
2022/05/30 01:38:54;;;;;;;;;3.00;2.00;;;;;11.88;100.00;100755.66;5040326;28;45431;-82
2022/05/30 01:41:19;;;;;;;;;5.00;3.67;;;;;12.05;100.00;100787.13;5022417;28;45965;-83
2022/05/30 01:43:46;;;;;;;;;2.33;2.33;;;;;11.87;100.00;100754.81;5020710;28;45374;-82
2022/05/30 01:46:16;;;;;;;;;2.33;2.33;;;;;11.87;100.00;100771.31;5022743;28;47297;-80
2022/05/30 01:48:41;;;;;;;;;3.33;3.33;;;;;11.88;100.00;100762.00;5021012;28;46216;-81
2022/05/30 01:51:07;;;;;;;;;2.33;2.00;;;;;11.71;100.00;100745.16;5051292;28;45672;-82
2022/05/30 01:53:32;;;;;;;;;5.00;3.00;;;;;12.00;100.00;100795.16;5060609;28;45495;-83
2022/05/30 01:55:58;;;;;;;;;4.67;3.67;;;;;12.00;100.00;100792.41;5060627;28;45298;-83
2022/05/30 01:58:24;;;;;;;;;3.67;2.67;;;;;11.91;100.00;100789.03;5054444;28;46794;-82
2022/05/30 02:00:49;;;;;;;;;5.33;3.67;;;;;11.76;100.00;100759.06;5035763;28;45402;-83
2022/05/30 02:03:15;;;;;;;;;3.00;3.00;;;;;11.81;100.00;100763.91;5048870;28;45358;-83
2022/05/30 02:05:41;;;;;;;;;3.33;2.33;;;;;11.72;100.00;100754.22;5046708;28;45577;-83
2022/05/30 02:08:08;;;;;;;;;4.00;4.00;;;;;11.89;100.00;100784.84;5028403;28;48103;-83
2022/05/30 02:10:34;;;;;;;;;3.00;3.00;;;;;11.96;100.00;100791.16;5021213;28;45761;-82
2022/05/30 02:13:00;;;;;;;;;3.00;3.00;;;;;11.87;100.00;100793.31;5036083;28;45787;-82
2022/05/30 02:15:26;;;;;;;;;5.33;3.33;;;;;11.82;100.00;100784.84;5049345;28;45564;-82
2022/05/30 02:17:52;;;;;;;;;2.00;2.00;;;;;11.89;100.00;100793.09;5041471;28;45420;-82
2022/05/30 02:20:18;;;;;;;;;4.67;4.33;;;;;11.74;100.00;100766.69;5034439;28;45473;-83
2022/05/30 02:22:44;;;;;;;;;2.00;2.00;;;;;11.89;100.00;100788.41;5042364;28;45468;-83
2022/05/30 02:25:12;;;;;;;;;6.67;5.00;;;;;11.83;100.00;100776.38;5041492;28;45424;-83
2022/05/30 02:27:41;;;;;;;;;3.33;2.67;;;;;11.74;100.00;100774.94;5025482;28;47687;-82
2022/05/30 02:30:09;;;;;;;;;5.00;4.00;;;;;11.83;100.00;100792.88;5022428;28;45620;-83
2022/05/30 02:32:35;;;;;;;;;4.00;4.00;;;;;11.83;100.00;100795.63;5024953;28;45724;-82
2022/05/30 02:37:48;;;;;;;;;5.00;3.67;;;;;11.80;100.00;100803.47;5043941;28;45395;-85
2022/05/30 02:40:13;;;;;;;;;4.33;3.00;;;;;11.70;100.00;100783.84;5024047;28;45798;-83
2022/05/30 02:42:40;;;;;;;;;6.00;4.00;;;;;11.63;100.00;100770.09;5032553;28;45850;-83
2022/05/30 02:45:07;;;;;;;;;5.00;5.00;;;;;11.76;100.00;100800.28;5028194;28;45931;-82
2022/05/30 02:47:33;;;;;;;;;2.67;2.67;;;;;11.76;100.00;100793.94;5043918;28;46017;-83
2022/05/30 02:50:00;;;;;;;;;3.00;3.00;;;;;11.47;100.00;100760.44;5032991;28;45444;-84
2022/05/30 02:52:25;;;;;;;;;3.67;3.67;;;;;11.52;100.00;100765.28;5038188;28;45504;-80
2022/05/30 02:54:51;;;;;;;;;6.00;3.33;;;;;11.71;100.00;100800.09;5035845;28;45996;-83
2022/05/30 02:57:16;;;;;;;;;4.00;4.00;;;;;11.63;100.00;100786.56;5026634;28;47963;-82
2022/05/30 02:59:42;;;;;;;;;4.00;2.67;;;;;11.54;100.00;100771.41;5013245;28;45731;-81
2022/05/30 03:02:08;;;;;;;;;4.00;4.00;;;;;11.66;100.00;100784.25;5020255;28;45675;-83
2022/05/30 03:04:33;;;;;;;;;3.00;3.00;;;;;11.59;100.00;100777.09;5015642;28;45537;-83
2022/05/30 03:07:00;;;;;;;;;5.00;3.00;;;;;11.46;100.00;100750.50;5035108;28;47135;-81
2022/05/30 03:09:26;;;;;;;;;7.00;5.00;;;;;11.64;100.00;100794.59;5028316;28;45827;-81
2022/05/30 03:11:51;;;;;;;;;5.00;5.00;;;;;11.46;100.00;100767.81;5033775;28;45825;-82
2022/05/30 03:14:17;;;;;;;;;4.33;4.00;;;;;11.59;100.00;100796.34;5048741;28;45388;-81
2022/05/30 03:16:42;;;;;;;;;4.00;4.00;;;;;11.56;100.00;100788.53;5020948;28;45350;-82
2022/05/30 03:19:08;;;;;;;;;6.00;4.00;;;;;11.42;100.00;100774.81;5019056;28;45378;-83
2022/05/30 03:21:33;;;;;;;;;5.33;3.00;;;;;11.55;100.00;100798.66;5041626;28;45428;-83
2022/05/30 03:24:00;;;;;;;;;4.00;4.00;;;;;11.40;100.00;100771.41;5028415;28;45503;-83
2022/05/30 03:26:27;;;;;;;;;4.33;4.33;;;;;11.56;100.00;100800.34;5026596;28;45502;-82
2022/05/30 03:28:53;;;;;;;;;5.00;5.00;;;;;11.15;100.00;100734.72;5024325;28;45871;-84
2022/05/30 03:31:18;;;;;;;;;4.00;4.00;;;;;11.40;100.00;100784.31;5023803;28;45418;-82
2022/05/30 03:33:44;;;;;;;;;6.33;5.33;;;;;11.44;100.00;100791.91;5021175;28;45509;-83
2022/05/30 03:36:25;;;;;;;;;4.00;3.67;;;;;11.43;100.00;100798.44;5040204;28;45447;-81
2022/05/30 03:38:50;;;;;;;;;5.00;5.00;;;;;11.53;100.00;100809.00;5021210;28;45384;-83
2022/05/30 03:41:16;;;;;;;;;4.00;2.67;;;;;11.33;100.00;100781.56;5044269;28;45781;-83
2022/05/30 03:43:41;;;;;;;;;3.33;3.33;;;;;11.31;100.00;100778.19;5019342;28;45936;-80
2022/05/30 03:46:07;;;;;;;;;7.33;5.33;;;;;11.45;100.00;100810.09;5020037;28;47092;-84
2022/05/30 03:48:32;;;;;;;;;7.00;4.00;;;;;11.34;100.00;100786.00;5018538;28;45870;-83
2022/05/30 03:50:58;;;;;;;;;5.00;4.00;;;;;11.49;100.00;100819.56;5015503;28;45961;-84
2022/05/30 03:53:27;;;;;;;;;5.00;5.00;;;;;11.51;100.00;100815.75;5039894;28;44948;-83
2022/05/30 03:55:52;;;;;;;;;8.00;5.33;;;;;11.53;100.00;100816.41;5025231;28;45507;-83
2022/05/30 03:58:18;;;;;;;;;5.00;4.00;;;;;11.22;100.00;100765.75;5032595;28;45466;-83
2022/05/30 04:00:45;;;;;;;;;3.00;3.00;;;;;11.42;100.00;100788.53;5036767;28;45138;-84
2022/05/30 04:03:11;;;;;;;;;6.00;4.67;;;;;11.61;100.00;100803.28;5026481;28;45658;-84
2022/05/30 04:05:40;;;;;;;;;7.00;5.00;;;;;11.87;100.00;100814.41;5027492;28;47176;-84
2022/05/30 04:08:07;;;;;;;;;4.00;4.00;;;;;11.59;100.00;100736.72;5021419;28;45491;-84
2022/05/30 04:10:33;;;;;;;;;6.00;4.00;;;;;12.15;100.00;100783.91;5020038;28;45457;-82
2022/05/30 04:13:01;;;;;;;;;3.00;3.00;;;;;12.63;100.00;100821.94;5035734;28;45436;-83
2022/05/30 04:15:27;;;;;;;;;5.00;5.00;;;;;13.00;100.00;100818.53;5032765;28;45373;-83
2022/05/30 04:17:52;;;;;;;;;4.33;3.00;;;;;13.23;100.00;100802.25;5023139;28;45714;-84
2022/05/30 04:20:18;;;;;;;;;3.33;3.33;;;;;13.60;100.00;100790.47;5030289;28;45756;-83
2022/05/30 04:22:46;;;;;;;;;6.33;5.00;;;;;14.21;100.00;100812.72;5018031;28;45387;-83
2022/05/30 04:25:12;;;;;;;;;3.67;3.67;;;;;14.47;100.00;100783.91;5030292;28;46075;-83
2022/05/30 04:27:37;;;;;;;;;6.00;6.00;;;;;14.90;100.00;100762.72;5021829;28;45201;-84
2022/05/30 04:30:05;;;;;;;;;3.33;3.33;;;;;15.61;100.00;100784.84;5037225;28;45497;-84
2022/05/30 04:32:30;;;;;;;;;5.00;2.67;;;;;16.27;100.00;100795.69;5021418;28;45621;-84
2022/05/30 04:34:56;;;;;;;;;3.67;3.67;;;;;16.59;100.00;100760.88;5022118;28;45451;-82
2022/05/30 04:37:21;;;;;;;;;4.67;3.00;;;;;17.30;100.00;100795.63;5037447;28;45676;-84
2022/05/30 04:39:47;;;;;;;;;3.67;3.00;;;;;17.78;100.00;100777.50;5018309;28;45410;-81
2022/05/30 04:42:12;;;;;;;;;2.00;2.00;;;;;18.26;100.00;100780.63;5032744;28;45424;-84
2022/05/30 04:44:38;;;;;;;;;3.00;3.00;;;;;18.86;100.00;100798.25;5019829;28;47854;-82
2022/05/30 04:47:05;;;;;;;;;4.33;4.00;;;;;19.25;100.00;100779.66;5014582;28;45606;-82
2022/05/30 04:49:31;;;;;;;;;3.67;3.67;;;;;19.66;100.00;100771.63;5013574;28;45696;-81
2022/05/30 04:51:56;;;;;;;;;5.00;3.67;;;;;20.18;100.00;100790.28;5022056;28;45517;-83
2022/05/30 04:54:21;;;;;;;;;4.00;4.00;;;;;20.50;97.37;100772.53;5029943;28;45808;-83
2022/05/30 04:56:47;;;;;;;;;4.00;3.00;;;;;20.88;93.09;100775.13;5021431;28;45379;-84
2022/05/30 04:59:14;;;;;;;;;4.33;4.33;;;;;21.44;89.42;100788.25;5025834;28;45373;-80
2022/05/30 05:01:43;;;;;;;;;4.00;3.00;;;;;21.64;86.13;100795.78;5031464;28;45568;-83
2022/05/30 05:04:11;;;;;;;;;3.33;2.00;;;;;21.66;84.75;100777.63;5034597;28;46389;-83
2022/05/30 05:06:38;;;;;;;;;3.00;3.00;;;;;22.21;83.97;100804.81;5030776;28;45428;-83
2022/05/30 05:09:16;;;;;;;;;2.67;2.00;;;;;22.46;82.28;100792.72;5025294;28;45839;-82
2022/05/30 05:11:43;;;;;;;;;4.00;3.00;;;;;22.62;79.59;100790.66;5021571;28;47110;-82
2022/05/30 05:14:11;;;;;;;;;5.33;2.33;;;;;22.84;77.99;100809.78;5058523;28;45903;-83
2022/05/30 05:16:40;;;;;;;;;4.00;4.00;;;;;22.83;76.60;100796.09;5042852;28;45754;-84
2022/05/30 05:19:06;;;;;;;;;10.67;4.00;;;;;23.16;75.14;100819.69;5025326;28;45446;-84
2022/05/30 05:21:37;;;;;;;;;5.00;5.00;;;;;23.21;74.87;100818.81;5046524;28;45408;-82
2022/05/30 05:24:05;;;;;;;;;7.33;5.33;;;;;22.89;74.78;100780.97;5041913;28;46468;-81
2022/05/30 05:26:31;;;;;;;;;5.67;5.67;;;;;23.26;73.94;100822.41;5040292;28;45894;-82
2022/05/30 05:28:58;;;;;;;;;4.33;4.00;;;;;23.72;73.71;100821.13;5051839;28;45645;-84
2022/05/30 05:31:30;;;;;;;;;4.00;4.00;;;;;23.99;71.87;100816.94;5016952;28;46193;-83
2022/05/30 05:33:58;;;;;;;;;6.00;5.00;;;;;23.94;70.66;100794.59;5050510;28;45897;-81
2022/05/30 05:36:33;;;;;;;;;6.00;3.00;;;;;24.30;69.22;100814.59;5017793;28;45427;-83
2022/05/30 05:39:32;;;;;;;;;7.33;4.67;;;;;24.78;68.93;100819.31;5034891;28;45700;-80
2022/05/30 05:42:14;;;;;;;;;;;;;;;;;;;;;
2022/05/30 05:44:40;;;;;;;;;4.33;3.33;;;;;25.83;63.79;100818.13;5037791;28;76665;-83
2022/05/30 05:47:06;;;;;;;;;3.33;2.00;;;;;25.88;61.67;100804.00;5026720;28;45542;-76
2022/05/30 05:49:32;;;;;;;;;6.33;4.33;;;;;25.90;61.18;100814.91;5032761;28;45773;-77
2022/05/30 05:51:57;;;;;;;;;4.33;3.33;;;;;26.09;60.71;100817.63;5025571;28;45733;-81
2022/05/30 05:54:25;;;;;;;;;5.67;4.00;;;;;26.42;60.58;100823.13;5038151;28;45692;-81
2022/05/30 05:56:51;;;;;;;;;4.33;4.33;;;;;26.86;57.62;100815.19;5031871;28;45701;-78
2022/05/30 05:59:17;;;;;;;;;4.00;3.33;;;;;27.14;56.42;100824.31;5028035;28;45689;-80
2022/05/30 06:01:43;;;;;;;;;4.33;4.33;;;;;27.48;54.07;100806.03;5012626;28;46140;-77
2022/05/30 06:04:10;;;;;;;;;4.33;3.00;;;;;27.65;53.22;100808.97;5017853;28;45560;-77
2022/05/30 06:09:58;;;;;;;;;7.67;4.00;;;;;28.16;49.88;100832.09;5029203;28;45424;-78
2022/05/30 06:12:23;;;;;;;;;3.00;3.00;;;;;28.32;48.87;100821.22;5030211;28;45611;-77
2022/05/30 06:14:49;;;;;;;;;4.75;4.75;;;;;28.85;48.07;100846.72;5031813;28;46297;-76
2022/05/30 06:17:54;;;;;;;;;4.75;4.00;;;;;29.20;46.06;100827.78;5042840;28;45735;-81
2022/05/30 06:20:19;;;;;;;;;6.00;4.00;;;;;29.73;43.71;100828.56;5011275;28;45317;-76
2022/05/30 06:22:45;;;;;;;;;3.50;3.50;;;;;29.98;41.66;100806.19;5031492;28;46005;-81
2022/05/30 06:25:29;;;;;;;;;;;;;;;;;;;;;
2022/05/30 06:27:55;;;;;;;;;4.50;3.50;;;;;30.74;39.71;100827.06;5036745;28;72627;-81
2022/05/30 06:30:20;;;;;;;;;4.75;3.50;;;;;30.55;38.89;100819.03;5009302;28;45738;-75
2022/05/30 06:33:01;;;;;;;;;5.75;4.25;;;;;30.37;39.69;100783.50;5035076;28;45589;-86
2022/05/30 06:35:27;;;;;;;;;5.50;5.00;;;;;30.61;37.99;100765.88;5038157;28;45618;-81
2022/05/30 06:37:59;;;;;;;;;5.00;4.00;;;;;31.03;36.27;100808.38;5029311;28;45226;-81
2022/05/30 06:40:47;;;;;;;;;4.50;4.00;;;;;30.52;37.34;100779.28;5022311;28;45469;-83
2022/05/30 06:43:13;;;;;;;;;5.25;4.00;;;;;30.67;36.78;100809.78;5015897;28;45534;-82
2022/05/30 06:45:58;;;;;;;;;3.75;3.00;;;;;31.01;37.16;100819.22;5012604;28;47683;-86
2022/05/30 06:48:27;;;;;;;;;3.75;3.25;;;;;31.68;35.37;100822.91;5035510;28;45867;-81
2022/05/30 06:50:52;;;;;;;;;4.75;3.75;;;;;32.07;33.74;100831.13;5008158;28;45517;-80
2022/05/30 06:53:18;;;;;;;;;4.50;4.00;;;;;31.70;33.53;100771.53;5034971;28;45700;-80
2022/05/30 06:55:49;;;;;;;;;3.25;3.25;;;;;32.19;33.55;100811.28;5035204;28;45638;-81
2022/05/30 06:58:15;;;;;;;;;5.25;4.00;;;;;32.60;32.47;100836.91;5032189;28;45471;-80
2022/05/30 07:00:44;;;;;;;;;3.50;2.50;;;;;32.75;31.76;100809.81;5030942;28;45532;-81
2022/05/30 07:03:12;;;;;;;;;7.25;4.75;;;;;32.98;31.01;100814.97;5035555;28;46890;-80
2022/05/30 07:05:38;;;;;;;;;2.50;2.00;;;;;32.97;30.71;100816.97;5025509;28;47579;-80
2022/05/30 07:08:04;;;;;;;;;5.00;4.00;;;;;33.03;30.46;100817.56;5017157;28;45819;-76
2022/05/30 07:10:30;;;;;;;;;4.25;3.00;;;;;32.90;30.12;100811.06;5028005;28;46444;-76
2022/05/30 07:12:57;;;;;;;;;2.00;2.00;;;;;32.72;30.56;100811.34;5018303;28;45687;-79
2022/05/30 07:15:23;;;;;;;;;3.00;3.00;;;;;33.20;30.21;100802.22;5021427;28;48113;-82
2022/05/30 07:17:49;;;;;;;;;3.75;3.00;;;;;33.50;29.13;100821.75;5033352;28;45750;-78
2022/05/30 07:20:14;;;;;;;;;2.25;2.25;;;;;33.70;29.08;100822.69;5017965;28;45839;-81
2022/05/30 07:22:40;;;;;;;;;4.00;2.00;;;;;33.80;28.25;100818.50;5020151;28;46202;-82
2022/05/30 07:25:07;;;;;;;;;3.00;2.00;;;;;33.59;28.20;100816.72;5017301;28;45774;-79
2022/05/30 07:27:32;;;;;;;;;3.75;3.00;;;;;33.71;27.79;100833.69;5015944;28;45829;-79
2022/05/30 07:29:58;;;;;;;;;2.50;2.50;;;;;33.68;28.05;100817.34;5032630;28;45649;-78
2022/05/30 07:32:23;;;;;;;;;2.25;2.25;;;;;34.11;28.36;100817.69;5024446;28;45382;-76
2022/05/30 07:34:49;;;;;;;;;3.50;2.50;;;;;34.74;26.85;100813.88;5028554;28;45797;-76
2022/05/30 07:37:14;;;;;;;;;2.50;2.50;;;;;35.46;25.51;100812.56;5009202;28;45539;-79
2022/05/30 07:39:40;;;;;;;;;3.00;3.00;;;;;35.76;25.07;100814.75;5008284;28;45641;-75
2022/05/30 07:42:06;;;;;;;;;5.50;2.00;;;;;36.25;24.89;100804.59;5031520;28;45333;-76
2022/05/30 07:44:32;;;;;;;;;3.50;2.00;;;;;37.12;23.71;100815.25;5032184;28;45698;-81
2022/05/30 07:46:59;;;;;;;;;3.00;1.00;;;;;36.86;22.55;100818.97;5031160;28;45851;-77
2022/05/30 07:49:24;;;;;;;;;3.25;3.25;;;;;36.93;22.50;100816.22;5006919;28;45431;-77
2022/05/30 07:51:50;;;;;;;;;2.00;2.00;;;;;37.33;22.42;100813.88;5030897;28;45503;-78
2022/05/30 07:54:15;;;;;;;;;3.00;1.25;;;;;38.11;21.49;100810.94;5013638;28;47898;-78
2022/05/30 07:56:41;;;;;;;;;1.00;1.00;;;;;38.49;21.03;100808.81;5013659;28;45489;-78
2022/05/30 07:59:07;;;;;;;;;2.00;2.00;;;;;39.23;20.95;100807.97;5029664;28;45536;-77
2022/05/30 08:01:33;;;;;;;;;2.50;1.50;;;;;39.75;18.93;100816.28;5002199;28;45838;-76
2022/05/30 08:03:59;;;;;;;;;1.00;1.00;;;;;39.93;19.71;100802.78;5012746;28;47766;-77
2022/05/30 08:06:26;;;;;;;;;1.00;1.00;;;;;40.24;19.49;100798.25;5017583;28;45410;-75
2022/05/30 08:08:53;;;;;;;;;2.00;2.00;;;;;40.81;18.05;100810.03;5031431;28;45921;-77
2022/05/30 08:11:22;;;;;;;;;1.50;1.50;;;;;40.87;17.85;100817.00;5032005;28;45885;-76
2022/05/30 08:13:49;;;;;;;;;1.50;1.50;;;;;40.90;17.81;100825.66;5044966;28;46414;-76
2022/05/30 08:16:17;;;;;;;;;1.00;1.00;;;;;40.96;17.98;100805.06;5019954;28;45420;-77
2022/05/30 08:18:42;;;;;;;;;1.00;1.00;;;;;40.79;17.39;100816.19;5025419;28;45715;-77
2022/05/30 08:21:08;;;;;;;;;3.25;2.00;;;;;40.48;17.98;100809.31;5021573;28;45797;-77
2022/05/30 08:23:33;;;;;;;;;1.00;1.00;;;;;40.93;17.36;100821.09;5029746;28;45793;-79
2022/05/30 08:26:00;;;;;;;;;0.00;0.00;;;;;41.30;16.88;100811.88;5017216;28;45451;-79
2022/05/30 08:28:25;;;;;;;;;1.00;1.00;;;;;41.71;16.89;100806.69;5017667;28;45428;-78
2022/05/30 08:30:51;;;;;;;;;2.75;1.00;;;;;42.19;16.44;100817.47;5042108;28;45824;-77
2022/05/30 08:33:20;;;;;;;;;0.75;0.75;;;;;42.55;16.09;100808.44;5022470;28;47007;-76
2022/05/30 08:35:47;;;;;;;;;1.00;1.00;;;;;42.73;15.50;100811.16;5034621;28;45796;-76
2022/05/30 08:38:13;;;;;;;;;0.25;0.25;;;;;42.95;15.37;100803.03;5035270;28;45501;-78
2022/05/30 08:43:35;;;;;;;;;0.50;0.50;;;;;43.01;15.08;100801.34;5027397;28;45396;-76
2022/05/30 08:46:18;;;;;;;;;0.00;0.00;;;;;43.25;15.29;100794.81;5014157;28;45393;-77
2022/05/30 08:48:49;;;;;;;;;0.00;0.00;;;;;43.52;14.71;100791.97;5034057;28;45392;-79
2022/05/30 08:51:45;;;;;;;;;2.00;0.75;;;;;43.86;15.16;100791.84;5026377;28;45864;-75
2022/05/30 08:54:29;;;;;;;;;3.25;1.00;;;;;44.20;14.63;100787.13;5013624;28;47276;-78
2022/05/30 08:56:58;;;;;;;;;0.50;0.00;;;;;44.29;15.21;100778.72;5019042;28;45806;-77
2022/05/30 08:59:35;;;;;;;;;2.00;1.00;;;;;44.79;13.87;100782.69;5042161;28;45781;-77
2022/05/30 09:02:13;;;;;;;;;0.00;0.00;;;;;44.99;13.98;100776.91;5040687;28;45950;-75
2022/05/30 09:04:47;;;;;;;;;2.00;1.00;;;;;45.44;13.64;100779.22;5009041;28;46466;-77
2022/05/30 09:07:21;;;;;;;;;1.00;1.00;;;;;45.87;13.48;100764.94;5014343;28;46022;-77
2022/05/30 09:10:13;;;;;;;;;1.25;0.00;;;;;46.20;12.59;100785.19;4996128;28;46610;-79
2022/05/30 09:13:05;;;;;;;;;0.33;0.33;;;;;46.21;12.45;100781.03;5039218;28;45387;-76
2022/05/30 09:15:35;;;;;;;;;1.00;1.00;;;;;46.00;12.78;100783.22;5032318;28;46828;-79
2022/05/30 09:18:09;;;;;;;;;0.00;0.00;;;;;45.80;13.14;100786.22;5025032;28;45492;-79
2022/05/30 09:20:37;;;;;;;;;0.00;0.00;;;;;45.81;12.89;100782.03;5039626;28;45704;-76
2022/05/30 09:23:05;;;;;;;;;0.00;0.00;;;;;46.07;12.43;100785.09;5049575;28;45918;-77
2022/05/30 09:28:31;;;;;;;;;0.00;0.00;;;;;46.61;12.64;100778.66;5020669;28;45772;-79
2022/05/30 09:31:14;;;;;;;;;0.00;0.00;;;;;46.62;11.74;100777.41;5033887;28;45756;-76
2022/05/30 09:33:42;;;;;;;;;1.00;1.00;;;;;46.28;12.17;100760.53;5033642;28;45459;-78
2022/05/30 09:36:24;;;;;;;;;0.00;0.00;;;;;46.17;13.00;100773.22;5015827;28;46741;-77
2022/05/30 09:39:02;;;;;;;;;0.33;0.00;;;;;46.28;12.33;100764.25;5033452;28;45359;-77
2022/05/30 09:41:39;;;;;;;;;0.00;0.00;;;;;46.69;12.62;100765.56;5032128;28;45357;-77
2022/05/30 09:44:22;;;;;;;;;2.00;0.00;;;;;46.76;11.99;100758.72;5012611;28;45538;-77
2022/05/30 09:46:58;;;;;;;;;0.00;0.00;;;;;46.50;12.28;100758.66;5002333;28;47216;-78
2022/05/30 09:49:27;;;;;;;;;0.00;0.00;;;;;46.62;11.93;100759.16;5024565;28;45488;-76
2022/05/30 09:52:04;;;;;;;;;0.00;0.00;;;;;46.28;12.24;100758.44;5032240;28;45831;-80
2022/05/30 09:54:34;;;;;;;;;1.00;1.00;;;;;45.99;12.70;100749.69;5009987;28;45638;-76
2022/05/30 09:57:08;;;;;;;;;0.00;0.00;;;;;46.21;12.52;100752.84;5015304;28;47182;-77
2022/05/30 09:59:47;;;;;;;;;0.00;0.00;;;;;46.66;12.29;100756.97;5023248;28;45439;-78
2022/05/30 10:02:45;;;;;;;;;0.00;0.00;;;;;46.92;11.62;100757.81;5033162;28;45484;-79
2022/05/30 10:05:14;;;;;;;;;0.67;0.67;;;;;46.72;11.83;100746.41;5006376;28;46297;-79
2022/05/30 10:07:52;;;;;;;;;0.00;0.00;;;;;46.82;12.13;100756.88;5016254;28;47307;-79
2022/05/30 10:10:24;;;;;;;;;0.00;0.00;;;;;46.58;12.16;100759.28;5025927;28;45558;-80
2022/05/30 10:12:53;;;;;;;;;0.00;0.00;;;;;46.42;12.06;100757.22;5016006;28;45697;-77
2022/05/30 10:15:24;;;;;;;;;0.00;0.00;;;;;46.54;12.06;100746.13;5023717;28;45305;-76
2022/05/30 10:17:52;;;;;;;;;0.00;0.00;;;;;46.79;12.50;100740.38;5015470;28;46910;-78
2022/05/30 10:20:55;;;;;;;;;3.00;0.00;;;;;46.23;11.95;100746.56;5016152;28;45474;-78
2022/05/30 10:29:44;;;;;;;;;0.00;0.00;;;;;45.21;13.00;100751.16;5041623;28;45637;-76
2022/05/30 10:32:35;;;;;;;;;0.00;0.00;;;;;45.44;12.71;100732.88;5031224;28;45436;-79
2022/05/30 10:35:16;;;;;;;;;0.00;0.00;;;;;45.72;12.51;100744.97;5034042;28;45415;-80
2022/05/30 10:38:00;;;;;;;;;1.00;0.00;;;;;45.34;12.25;100756.28;5010729;28;46369;-77
2022/05/30 10:41:03;;;;;;;;;0.00;0.00;;;;;44.90;12.43;100756.41;5004767;28;48491;-77
2022/05/30 10:44:15;;;;;;;;;1.25;0.00;;;;;44.68;12.85;100750.28;4978586;28;45720;-78
2022/05/30 10:46:55;;;;;;;;;1.00;1.00;;;;;44.36;12.45;100743.88;5015421;28;46789;-78
2022/05/30 10:49:28;;;;;;;;;0.00;0.00;;;;;44.34;12.32;100749.28;5024735;28;45792;-77
2022/05/30 10:52:00;;;;;;;;;0.00;0.00;;;;;44.29;12.56;100752.69;5003721;28;46567;-78
2022/05/30 10:54:38;;;;;;;;;0.00;0.00;;;;;43.42;12.85;100749.63;5027798;28;45681;-79
2022/05/30 10:57:28;;;;;;;;;0.00;0.00;;;;;42.56;13.43;100755.28;5023569;28;45559;-80
2022/05/30 11:00:04;;;;;;;;;0.00;0.00;;;;;42.07;13.42;100748.78;5027145;28;45605;-78
2022/05/30 11:02:51;;;;;;;;;0.00;0.00;;;;;41.39;13.36;100744.44;5005673;28;46002;-78
2022/05/30 11:05:50;;;;;;;;;0.00;0.00;;;;;40.91;14.00;100732.34;5029196;28;45687;-78
2022/05/30 11:08:31;;;;;;;;;0.50;0.50;;;;;40.48;14.77;100741.13;5035578;28;45608;-77
2022/05/30 11:11:02;;;;;;;;;0.00;0.00;;;;;39.77;14.90;100739.19;5028854;28;45815;-79
2022/05/30 11:13:30;;;;;;;;;0.75;0.75;;;;;39.03;15.20;100759.53;5036867;28;46483;-76
2022/05/30 11:16:01;;;;;;;;;0.00;0.00;;;;;38.41;16.04;100741.19;5032413;28;45914;-80
2022/05/30 11:18:39;;;;;;;;;0.00;0.00;;;;;37.31;16.50;100739.91;5022450;28;45779;-79
2022/05/30 11:21:37;;;;;;;;;2.50;0.25;;;;;36.29;17.18;100739.81;5003272;28;45892;-78
2022/05/30 11:24:05;;;;;;;;;0.25;0.25;;;;;35.21;17.77;100739.97;5009439;28;47770;-77
2022/05/30 11:26:56;;;;;;;;;1.00;0.00;;;;;33.84;19.97;100725.56;5026150;28;45475;-76
2022/05/30 11:29:49;;;;;;;;;0.00;0.00;;;;;33.09;20.79;100736.53;5004343;28;45943;-76
2022/05/30 11:32:26;;;;;;;;;1.75;0.75;;;;;32.70;21.58;100739.09;5014290;28;45447;-76
2022/05/30 11:35:10;;;;;;;;;1.00;0.00;;;;;32.26;21.22;100727.56;5027967;28;46587;-77
2022/05/30 11:37:44;;;;;;;;;0.00;0.00;;;;;31.89;22.07;100730.41;5034958;28;45737;-77
2022/05/30 11:40:16;;;;;;;;;0.00;0.00;;;;;31.51;22.23;100723.84;5037455;28;45443;-79
2022/05/30 11:43:09;;;;;;;;;0.33;0.33;;;;;30.95;23.23;100727.94;5017511;28;47089;-82
2022/05/30 11:45:41;;;;;;;;;0.25;0.25;;;;;30.45;24.24;100729.72;5035932;28;46076;-81
2022/05/30 11:48:21;;;;;;;;;0.00;0.00;;;;;30.11;25.09;100742.06;5016449;28;45772;-80
2022/05/30 11:50:54;;;;;;;;;0.00;0.00;;;;;29.48;24.63;100736.19;5027187;28;45462;-79
2022/05/30 11:53:53;;;;;;;;;2.67;0.00;;;;;28.86;25.85;100724.16;5032931;28;45535;-80
2022/05/30 11:56:34;;;;;;;;;0.00;0.00;;;;;28.23;26.40;100737.72;5034948;28;45700;-81
2022/05/30 11:59:20;;;;;;;;;0.00;0.00;;;;;27.56;27.72;100726.41;5033585;28;45939;-81
2022/05/30 12:01:51;;;;;;;;;1.33;1.33;;;;;26.97;29.34;100737.78;5040979;28;45481;-80
2022/05/30 12:05:03;;;;;;;;;1.00;1.00;;;;;26.38;30.07;100727.34;5019749;28;46156;-79
2022/05/30 12:07:47;;;;;;;;;0.00;0.00;;;;;25.94;31.91;100728.00;5025241;28;46499;-80